createdAt,value
2018-04-17T00:00:23.374Z,1015.11
2018-04-17T00:01:23.357Z,1015.11
2018-04-17T00:02:23.355Z,1015.16
2018-04-17T00:03:23.372Z,1015.21
2018-04-17T00:04:23.379Z,1015.27
2018-04-17T00:05:23.439Z,1015.28
2018-04-17T00:06:23.400Z,1015.34
2018-04-17T00:07:23.419Z,1015.38
2018-04-17T00:08:23.425Z,1015.40
2018-04-17T00:09:23.425Z,1015.43
2018-04-17T00:10:23.476Z,1015.46
2018-04-17T00:11:23.447Z,1015.45
2018-04-17T00:12:23.484Z,1015.44
2018-04-17T00:13:23.488Z,1015.43
2018-04-17T00:14:23.480Z,1015.44
2018-04-17T00:15:23.525Z,1015.42
2018-04-17T00:16:23.532Z,1015.45
2018-04-17T00:17:23.518Z,1015.44
2018-04-17T00:18:23.521Z,1015.45
2018-04-17T00:19:23.549Z,1015.47
2018-04-17T00:20:23.537Z,1015.51
2018-04-17T00:21:23.589Z,1015.55
2018-04-17T00:22:23.593Z,1015.45
2018-04-17T00:23:23.623Z,1015.48
2018-04-17T00:24:23.577Z,1015.49
2018-04-17T00:25:23.586Z,1015.51
2018-04-17T00:26:23.605Z,1015.48
2018-04-17T00:27:23.635Z,1015.52
2018-04-17T00:28:23.677Z,1015.56
2018-04-17T00:29:23.646Z,1015.55
2018-04-17T00:30:23.662Z,1015.55
2018-04-17T00:31:23.664Z,1015.58
2018-04-17T00:32:23.720Z,1015.65
2018-04-17T00:33:23.713Z,1015.62
2018-04-17T00:34:23.711Z,1015.62
2018-04-17T00:35:23.687Z,1015.62
2018-04-17T00:36:23.705Z,1015.64
2018-04-17T00:37:23.721Z,1015.64
2018-04-17T00:38:23.788Z,1015.72
2018-04-17T00:39:23.774Z,1015.75
2018-04-17T00:40:23.740Z,1015.73
2018-04-17T00:41:23.747Z,1015.75
2018-04-17T00:42:23.757Z,1015.71
2018-04-17T00:43:23.763Z,1015.72
2018-04-17T00:44:23.811Z,1015.76
2018-04-17T00:45:23.808Z,1015.76
2018-04-17T00:46:23.801Z,1015.78
2018-04-17T00:47:23.840Z,1015.79
2018-04-17T00:48:23.818Z,1015.80
2018-04-17T00:49:23.895Z,1015.81
2018-04-17T00:50:23.843Z,1015.85
2018-04-17T00:51:23.848Z,1015.89
2018-04-17T00:52:23.866Z,1015.91
2018-04-17T00:53:23.876Z,1015.96
2018-04-17T00:54:23.927Z,1016.01
2018-04-17T00:55:23.884Z,1016.05
2018-04-17T00:56:23.936Z,1016.07
2018-04-17T00:57:23.933Z,1016.10
2018-04-17T00:58:23.926Z,1016.08
2018-04-17T00:59:23.959Z,1016.15
2018-04-17T01:00:23.993Z,1016.14
2018-04-17T01:01:23.984Z,1016.15
2018-04-17T01:02:23.957Z,1016.16
2018-04-17T01:03:24.009Z,1016.15
2018-04-17T01:04:23.984Z,1016.12
2018-04-17T01:05:24.027Z,1016.13
2018-04-17T01:06:24.001Z,1016.09
2018-04-17T01:07:24.038Z,1016.16
2018-04-17T01:08:24.029Z,1016.20
2018-04-17T01:09:24.030Z,1016.21
2018-04-17T01:10:24.085Z,1016.26
2018-04-17T01:11:24.046Z,1016.28
2018-04-17T01:12:24.105Z,1016.28
2018-04-17T01:13:24.070Z,1016.28
2018-04-17T01:14:24.091Z,1016.30
2018-04-17T01:15:24.087Z,1016.31
2018-04-17T01:16:24.145Z,1016.32
2018-04-17T01:17:24.112Z,1016.32
2018-04-17T01:18:24.128Z,1016.36
2018-04-17T01:19:24.181Z,1016.33
2018-04-17T01:20:24.134Z,1016.33
2018-04-17T01:21:24.209Z,1016.29
2018-04-17T01:22:24.173Z,1016.32
2018-04-17T01:23:24.179Z,1016.32
2018-04-17T01:24:24.179Z,1016.34
2018-04-17T01:25:24.205Z,1016.32
2018-04-17T01:26:24.244Z,1016.35
2018-04-17T01:27:24.220Z,1016.38
2018-04-17T01:28:24.256Z,1016.38
2018-04-17T01:29:24.226Z,1016.33
2018-04-17T01:30:24.252Z,1016.32
2018-04-17T01:31:24.245Z,1016.31
2018-04-17T01:32:24.270Z,1016.32
2018-04-17T01:33:24.306Z,1016.30
2018-04-17T01:34:24.280Z,1016.35
2018-04-17T01:35:24.308Z,1016.37
2018-04-17T01:36:24.360Z,1016.35
2018-04-17T01:37:24.316Z,1016.32
2018-04-17T01:38:24.348Z,1016.34
2018-04-17T01:39:24.339Z,1016.33
2018-04-17T01:40:24.356Z,1016.33
2018-04-17T01:41:24.357Z,1016.34
2018-04-17T01:42:24.365Z,1016.34
2018-04-17T01:43:24.409Z,1016.30
2018-04-17T01:44:24.388Z,1016.38
2018-04-17T01:45:24.389Z,1016.37
2018-04-17T01:46:24.429Z,1016.38
2018-04-17T01:47:24.439Z,1016.39
2018-04-17T01:48:24.426Z,1016.39
2018-04-17T01:49:24.455Z,1016.41
2018-04-17T01:50:24.449Z,1016.45
2018-04-17T01:51:24.465Z,1016.50
2018-04-17T01:52:24.456Z,1016.48
2018-04-17T01:53:24.464Z,1016.51
2018-04-17T01:54:24.527Z,1016.50
2018-04-17T01:55:24.546Z,1016.50
2018-04-17T01:56:24.572Z,1016.50
2018-04-17T01:57:24.524Z,1016.52
2018-04-17T01:58:24.534Z,1016.50
2018-04-17T01:59:24.603Z,1016.50
2018-04-17T02:00:24.575Z,1016.53
2018-04-17T02:01:24.550Z,1016.57
2018-04-17T02:02:24.599Z,1016.61
2018-04-17T02:03:24.565Z,1016.63
2018-04-17T02:04:24.625Z,1016.62
2018-04-17T02:05:24.667Z,1016.67
2018-04-17T02:06:24.598Z,1016.64
2018-04-17T02:07:24.631Z,1016.63
2018-04-17T02:08:24.637Z,1016.65
2018-04-17T02:09:24.651Z,1016.63
2018-04-17T02:10:24.638Z,1016.62
2018-04-17T02:11:24.686Z,1016.64
2018-04-17T02:12:24.685Z,1016.65
2018-04-17T02:13:24.697Z,1016.62
2018-04-17T02:14:24.708Z,1016.64
2018-04-17T02:15:24.711Z,1016.62
2018-04-17T02:16:24.760Z,1016.66
2018-04-17T02:17:24.720Z,1016.69
2018-04-17T02:18:24.756Z,1016.66
2018-04-17T02:19:24.737Z,1016.71
2018-04-17T02:20:24.743Z,1016.76
2018-04-17T02:21:24.802Z,1016.72
2018-04-17T02:22:24.792Z,1016.72
2018-04-17T02:23:24.797Z,1016.76
2018-04-17T02:24:24.771Z,1016.76
2018-04-17T02:25:24.778Z,1016.70
2018-04-17T02:26:24.787Z,1016.76
2018-04-17T02:27:24.843Z,1016.77
2018-04-17T02:28:24.827Z,1016.79
2018-04-17T02:29:24.893Z,1016.78
2018-04-17T02:30:24.858Z,1016.82
2018-04-17T02:31:24.849Z,1016.83
2018-04-17T02:32:24.910Z,1016.88
2018-04-17T02:33:24.861Z,1016.85
2018-04-17T02:34:24.942Z,1016.89
2018-04-17T02:35:24.900Z,1016.91
2018-04-17T02:36:24.916Z,1016.91
2018-04-17T02:37:24.975Z,1016.91
2018-04-17T02:38:24.944Z,1016.89
2018-04-17T02:39:24.935Z,1016.92
2018-04-17T02:40:24.955Z,1016.94
2018-04-17T02:41:24.952Z,1016.93
2018-04-17T02:42:24.984Z,1016.97
2018-04-17T02:43:24.991Z,1016.96
2018-04-17T02:44:24.983Z,1016.97
2018-04-17T02:45:25.051Z,1016.99
2018-04-17T02:46:25.005Z,1017.03
2018-04-17T02:47:25.017Z,1017.02
2018-04-17T02:48:25.020Z,1017.04
2018-04-17T02:49:25.019Z,1017.02
2018-04-17T02:50:25.074Z,1017.01
2018-04-17T02:51:25.049Z,1017.00
2018-04-17T02:52:25.083Z,1017.00
2018-04-17T02:53:25.063Z,1016.98
2018-04-17T02:54:25.098Z,1017.02
2018-04-17T02:55:25.133Z,1017.04
2018-04-17T02:56:25.141Z,1017.01
2018-04-17T02:57:25.113Z,1016.98
2018-04-17T02:58:25.115Z,1016.94
2018-04-17T02:59:25.151Z,1016.95
2018-04-17T03:00:25.132Z,1016.95
2018-04-17T03:01:25.131Z,1016.98
2018-04-17T03:02:25.216Z,1016.99
2018-04-17T03:03:25.185Z,1017.03
2018-04-17T03:04:25.175Z,1017.02
2018-04-17T03:05:25.208Z,1017.09
2018-04-17T03:06:25.195Z,1017.04
2018-04-17T03:07:25.196Z,1017.04
2018-04-17T03:08:25.258Z,1016.99
2018-04-17T03:09:25.207Z,1017.03
2018-04-17T03:10:25.226Z,1017.01
2018-04-17T03:11:25.239Z,1017.01
2018-04-17T03:12:25.237Z,1017.01
2018-04-17T03:13:25.257Z,1017.03
2018-04-17T03:14:25.312Z,1017.03
2018-04-17T03:15:25.412Z,1017.04
2018-04-17T03:16:25.276Z,1017.07
2018-04-17T03:17:25.291Z,1017.07
2018-04-17T03:18:25.298Z,1017.10
2018-04-17T03:19:25.362Z,1017.14
2018-04-17T03:20:25.350Z,1017.18
2018-04-17T03:21:25.353Z,1017.19
2018-04-17T03:22:25.341Z,1017.23
2018-04-17T03:23:25.373Z,1017.23
2018-04-17T03:24:25.433Z,1017.28
2018-04-17T03:25:25.413Z,1017.26
2018-04-17T03:26:25.417Z,1017.26
2018-04-17T03:27:25.422Z,1017.28
2018-04-17T03:28:25.447Z,1017.24
2018-04-17T03:29:25.414Z,1017.22
2018-04-17T03:30:25.462Z,1017.24
2018-04-17T03:31:25.492Z,1017.26
2018-04-17T03:32:25.466Z,1017.28
2018-04-17T03:33:25.490Z,1017.27
2018-04-17T03:34:25.462Z,1017.27
2018-04-17T03:35:25.461Z,1017.33
2018-04-17T03:36:25.474Z,1017.32
2018-04-17T03:37:25.497Z,1017.32
2018-04-17T03:38:25.585Z,1017.35
2018-04-17T03:39:25.500Z,1017.41
2018-04-17T03:40:25.528Z,1017.37
2018-04-17T03:41:25.530Z,1017.39
2018-04-17T03:42:25.548Z,1017.41
2018-04-17T03:43:25.560Z,1017.41
2018-04-17T03:44:25.582Z,1017.38
2018-04-17T03:45:25.558Z,1017.43
2018-04-17T03:46:25.567Z,1017.42
2018-04-17T03:47:25.613Z,1017.47
2018-04-17T03:48:25.599Z,1017.45
2018-04-17T03:49:25.595Z,1017.49
2018-04-17T03:50:25.619Z,1017.50
2018-04-17T03:51:25.662Z,1017.53
2018-04-17T03:52:25.631Z,1017.53
2018-04-17T03:53:25.648Z,1017.53
2018-04-17T03:54:25.685Z,1017.53
2018-04-17T03:55:25.666Z,1017.53
2018-04-17T03:56:25.699Z,1017.52
2018-04-17T03:57:25.700Z,1017.55
2018-04-17T03:58:25.719Z,1017.52
2018-04-17T03:59:25.701Z,1017.57
2018-04-17T04:00:25.722Z,1017.59
2018-04-17T04:01:25.739Z,1017.61
2018-04-17T04:02:25.723Z,1017.63
2018-04-17T04:03:25.796Z,1017.61
2018-04-17T04:04:25.742Z,1017.64
2018-04-17T04:05:25.816Z,1017.67
2018-04-17T04:06:25.769Z,1017.66
2018-04-17T04:07:25.774Z,1017.65
2018-04-17T04:08:25.788Z,1017.67
2018-04-17T04:09:25.787Z,1017.67
2018-04-17T04:10:25.861Z,1017.64
2018-04-17T04:11:25.845Z,1017.65
2018-04-17T04:12:25.833Z,1017.69
2018-04-17T04:13:25.896Z,1017.69
2018-04-17T04:14:25.853Z,1017.70
2018-04-17T04:15:25.861Z,1017.67
2018-04-17T04:16:25.875Z,1017.67
2018-04-17T04:17:25.882Z,1017.72
2018-04-17T04:18:25.943Z,1017.70
2018-04-17T04:19:25.904Z,1017.74
2018-04-17T04:20:25.898Z,1017.71
2018-04-17T04:21:25.914Z,1017.72
2018-04-17T04:22:25.911Z,1017.74
2018-04-17T04:23:26.020Z,1017.77
2018-04-17T04:24:25.942Z,1017.76
2018-04-17T04:25:25.943Z,1017.81
2018-04-17T04:26:25.989Z,1017.76
2018-04-17T04:27:25.961Z,1017.82
2018-04-17T04:28:26.012Z,1017.78
2018-04-17T04:29:25.989Z,1017.83
2018-04-17T04:30:26.012Z,1017.87
2018-04-17T04:31:26.028Z,1017.93
2018-04-17T04:32:26.055Z,1017.95
2018-04-17T04:33:26.026Z,1017.98
2018-04-17T04:34:26.042Z,1017.97
2018-04-17T04:35:26.052Z,1018.00
2018-04-17T04:36:26.072Z,1017.97
2018-04-17T04:37:26.122Z,1018.00
2018-04-17T04:38:26.107Z,1018.00
2018-04-17T04:39:26.082Z,1018.04
2018-04-17T04:40:26.101Z,1018.06
2018-04-17T04:41:26.107Z,1018.07
2018-04-17T04:42:26.116Z,1018.03
2018-04-17T04:43:26.155Z,1018.07
2018-04-17T04:44:26.167Z,1018.07
2018-04-17T04:45:26.147Z,1018.05
2018-04-17T04:46:26.165Z,1018.06
2018-04-17T04:47:26.173Z,1018.11
2018-04-17T04:48:26.179Z,1018.14
2018-04-17T04:49:26.240Z,1018.14
2018-04-17T04:50:26.217Z,1018.19
2018-04-17T04:51:26.209Z,1018.22
2018-04-17T04:52:26.238Z,1018.22
2018-04-17T04:53:26.230Z,1018.22
2018-04-17T04:54:26.269Z,1018.21
2018-04-17T04:55:26.237Z,1018.18
2018-04-17T04:56:26.281Z,1018.23
2018-04-17T04:57:26.266Z,1018.21
2018-04-17T04:58:26.307Z,1018.25
2018-04-17T04:59:26.289Z,1018.29
2018-04-17T05:00:26.290Z,1018.32
2018-04-17T05:01:26.307Z,1018.33
2018-04-17T05:02:26.325Z,1018.34
2018-04-17T05:03:26.361Z,1018.35
2018-04-17T05:04:26.324Z,1018.42
2018-04-17T05:05:26.336Z,1018.43
2018-04-17T05:06:26.350Z,1018.42
2018-04-17T05:07:26.400Z,1018.45
2018-04-17T05:08:26.395Z,1018.46
2018-04-17T05:09:26.450Z,1018.51
2018-04-17T05:10:26.411Z,1018.53
2018-04-17T05:11:26.398Z,1018.57
2018-04-17T05:12:26.423Z,1018.56
2018-04-17T05:13:26.482Z,1018.59
2018-04-17T05:14:26.443Z,1018.62
2018-04-17T05:15:26.456Z,1018.66
2018-04-17T05:16:26.458Z,1018.68
2018-04-17T05:17:26.468Z,1018.69
2018-04-17T05:18:26.549Z,1018.72
2018-04-17T05:19:26.477Z,1018.77
2018-04-17T05:20:26.506Z,1018.78
2018-04-17T05:21:26.515Z,1018.81
2018-04-17T05:22:26.520Z,1018.84
2018-04-17T05:23:26.586Z,1018.86
2018-04-17T05:24:26.578Z,1018.89
2018-04-17T05:25:26.559Z,1018.91
2018-04-17T05:26:26.580Z,1018.90
2018-04-17T05:27:26.582Z,1018.94
2018-04-17T05:28:26.632Z,1019.01
2018-04-17T05:29:26.598Z,1019.03
2018-04-17T05:30:26.656Z,1019.09
2018-04-17T05:31:26.614Z,1019.11
2018-04-17T05:32:26.648Z,1019.13
2018-04-17T05:33:26.702Z,1019.19
2018-04-17T05:34:26.637Z,1019.17
2018-04-17T05:35:26.648Z,1019.19
2018-04-17T05:36:26.675Z,1019.19
2018-04-17T05:37:26.671Z,1019.22
2018-04-17T05:38:26.719Z,1019.21
2018-04-17T05:39:26.693Z,1019.20
2018-04-17T05:40:26.786Z,1019.23
2018-04-17T05:41:26.736Z,1019.23
2018-04-17T05:42:26.746Z,1019.30
2018-04-17T05:43:26.758Z,1019.37
2018-04-17T05:44:26.748Z,1019.33
2018-04-17T05:45:26.763Z,1019.38
2018-04-17T05:46:26.825Z,1019.35
2018-04-17T05:47:26.821Z,1019.37
2018-04-17T05:48:26.794Z,1019.37
2018-04-17T05:49:26.814Z,1019.35
2018-04-17T05:50:26.828Z,1019.42
2018-04-17T05:51:26.854Z,1019.44
2018-04-17T05:52:26.853Z,1019.49
2018-04-17T05:53:26.891Z,1019.47
2018-04-17T05:54:26.921Z,1019.47
2018-04-17T05:55:26.909Z,1019.50
2018-04-17T05:56:26.945Z,1019.48
2018-04-17T05:57:26.889Z,1019.53
2018-04-17T05:58:26.947Z,1019.51
2018-04-17T05:59:26.923Z,1019.50
2018-04-17T06:00:26.942Z,1019.55
2018-04-17T06:01:26.976Z,1019.54
2018-04-17T06:02:26.957Z,1019.57
2018-04-17T06:03:26.983Z,1019.58
2018-04-17T06:04:27.005Z,1019.63
2018-04-17T06:05:27.011Z,1019.62
2018-04-17T06:06:27.011Z,1019.60
2018-04-17T06:07:27.014Z,1019.63
2018-04-17T06:08:27.033Z,1019.64
2018-04-17T06:09:27.117Z,1019.61
2018-04-17T06:10:27.045Z,1019.68
2018-04-17T06:11:27.051Z,1019.62
2018-04-17T06:12:27.065Z,1019.69
2018-04-17T06:13:27.066Z,1019.68
2018-04-17T06:14:27.146Z,1019.71
2018-04-17T06:15:27.120Z,1019.73
2018-04-17T06:16:27.133Z,1019.73
2018-04-17T06:17:27.116Z,1019.73
2018-04-17T06:18:27.140Z,1019.77
2018-04-17T06:19:27.197Z,1019.80
2018-04-17T06:20:27.183Z,1019.82
2018-04-17T06:21:27.173Z,1019.82
2018-04-17T06:22:27.225Z,1019.86
2018-04-17T06:23:27.203Z,1019.91
2018-04-17T06:24:27.436Z,1019.92
2018-04-17T06:25:27.209Z,1019.95
2018-04-17T06:26:27.226Z,1019.88
2018-04-17T06:27:27.255Z,1019.94
2018-04-17T06:28:27.243Z,1020.00
2018-04-17T06:29:27.257Z,1019.99
2018-04-17T06:30:27.293Z,1019.98
2018-04-17T06:31:27.312Z,1020.01
2018-04-17T06:32:27.282Z,1020.03
2018-04-17T06:33:27.299Z,1020.05
2018-04-17T06:34:27.353Z,1020.07
2018-04-17T06:35:27.317Z,1020.10
2018-04-17T06:36:27.410Z,1020.13
2018-04-17T06:37:27.340Z,1020.22
2018-04-17T06:38:27.412Z,1020.24
2018-04-17T06:39:27.365Z,1020.21
2018-04-17T06:40:27.372Z,1020.24
2018-04-17T06:41:27.592Z,1020.27
2018-04-17T06:42:27.409Z,1020.27
2018-04-17T06:43:27.430Z,1020.28
2018-04-17T06:44:27.435Z,1020.33
2018-04-17T06:45:27.469Z,1020.33
2018-04-17T06:46:27.449Z,1020.34
2018-04-17T06:47:27.508Z,1020.39
2018-04-17T06:48:27.476Z,1020.38
2018-04-17T06:49:27.503Z,1020.37
2018-04-17T06:50:27.571Z,1020.42
2018-04-17T06:51:27.579Z,1020.41
2018-04-17T06:52:27.526Z,1020.39
2018-04-17T06:53:27.519Z,1020.43
2018-04-17T06:54:27.536Z,1020.45
2018-04-17T06:55:27.542Z,1020.43
2018-04-17T06:56:27.596Z,1020.44
2018-04-17T06:57:27.568Z,1020.46
2018-04-17T06:58:27.676Z,1020.45
2018-04-17T06:59:27.593Z,1020.45
2018-04-17T07:00:27.613Z,1020.50
2018-04-17T07:01:27.655Z,1020.47
2018-04-17T07:02:27.698Z,1020.46
2018-04-17T07:03:27.644Z,1020.50
2018-04-17T07:04:27.649Z,1020.51
2018-04-17T07:05:27.698Z,1020.53
2018-04-17T07:06:27.753Z,1020.53
2018-04-17T07:07:27.706Z,1020.54
2018-04-17T07:08:27.700Z,1020.58
2018-04-17T07:09:27.745Z,1020.58
2018-04-17T07:10:27.710Z,1020.60
2018-04-17T07:11:27.776Z,1020.61
2018-04-17T07:12:27.730Z,1020.65
2018-04-17T07:13:27.754Z,1020.66
2018-04-17T07:14:27.775Z,1020.65
2018-04-17T07:15:27.783Z,1020.68
2018-04-17T07:16:27.809Z,1020.66
2018-04-17T07:17:27.791Z,1020.71
2018-04-17T07:18:27.840Z,1020.72
2018-04-17T07:19:27.819Z,1020.75
2018-04-17T07:20:27.836Z,1020.71
2018-04-17T07:21:27.856Z,1020.69
2018-04-17T07:22:27.914Z,1020.72
2018-04-17T07:23:27.872Z,1020.79
2018-04-17T07:24:27.875Z,1020.80
2018-04-17T07:25:27.931Z,1020.82
2018-04-17T07:26:27.895Z,1020.84
2018-04-17T07:27:27.898Z,1020.87
2018-04-17T07:28:27.927Z,1020.91
2018-04-17T07:29:28.012Z,1020.94
2018-04-17T07:30:27.931Z,1020.93
2018-04-17T07:31:27.997Z,1020.99
2018-04-17T07:32:27.970Z,1020.96
2018-04-17T07:33:27.979Z,1020.88
2018-04-17T07:34:28.000Z,1020.95
2018-04-17T07:35:28.021Z,1020.93
2018-04-17T07:36:28.074Z,1020.94
2018-04-17T07:37:28.054Z,1020.99
2018-04-17T07:38:28.020Z,1020.99
2018-04-17T07:39:28.047Z,1021.02
2018-04-17T07:40:28.114Z,1021.04
2018-04-17T07:41:28.097Z,1021.07
2018-04-17T07:42:28.075Z,1021.02
2018-04-17T07:43:28.120Z,1021.05
2018-04-17T07:44:28.105Z,1021.03
2018-04-17T07:45:28.131Z,1021.01
2018-04-17T07:46:28.125Z,1021.00
2018-04-17T07:47:28.188Z,1021.00
2018-04-17T07:48:28.180Z,1021.00
2018-04-17T07:49:28.146Z,1020.99
2018-04-17T07:50:28.213Z,1020.98
2018-04-17T07:51:28.188Z,1021.06
2018-04-17T07:52:28.197Z,1021.08
2018-04-17T07:53:28.267Z,1021.09
2018-04-17T07:54:28.219Z,1021.08
2018-04-17T07:55:28.231Z,1021.05
2018-04-17T07:56:28.222Z,1021.06
2018-04-17T07:57:28.269Z,1021.09
2018-04-17T07:58:28.318Z,1021.10
2018-04-17T07:59:28.306Z,1021.03
2018-04-17T08:00:28.285Z,1021.09
2018-04-17T08:01:28.494Z,1021.04
2018-04-17T08:02:28.304Z,1021.10
2018-04-17T08:03:28.306Z,1021.07
2018-04-17T08:04:28.364Z,1021.09
2018-04-17T08:05:28.335Z,1021.12
2018-04-17T08:06:28.336Z,1021.15
2018-04-17T08:07:28.353Z,1021.15
2018-04-17T08:08:28.376Z,1021.15
2018-04-17T08:09:28.416Z,1021.17
2018-04-17T08:10:28.404Z,1021.18
2018-04-17T08:11:28.404Z,1021.21
2018-04-17T08:12:28.418Z,1021.17
2018-04-17T08:13:28.468Z,1021.20
2018-04-17T08:14:28.466Z,1021.16
2018-04-17T08:15:28.444Z,1021.20
2018-04-17T08:16:28.463Z,1021.20
2018-04-17T08:17:28.465Z,1021.22
2018-04-17T08:18:28.478Z,1021.24
2018-04-17T08:19:28.571Z,1021.25
2018-04-17T08:20:28.552Z,1021.26
2018-04-17T08:21:28.547Z,1021.25
2018-04-17T08:22:28.526Z,1021.24
2018-04-17T08:23:28.528Z,1021.28
2018-04-17T08:24:28.554Z,1021.31
2018-04-17T08:25:28.558Z,1021.33
2018-04-17T08:26:28.596Z,1021.32
2018-04-17T08:27:28.583Z,1021.29
2018-04-17T08:28:28.612Z,1021.31
2018-04-17T08:29:28.606Z,1021.33
2018-04-17T08:30:28.604Z,1021.31
2018-04-17T08:31:28.654Z,1021.35
2018-04-17T08:32:28.632Z,1021.38
2018-04-17T08:33:28.686Z,1021.35
2018-04-17T08:34:28.674Z,1021.34
2018-04-17T08:35:28.687Z,1021.39
2018-04-17T08:36:28.684Z,1021.43
2018-04-17T08:37:28.695Z,1021.38
2018-04-17T08:38:28.757Z,1021.32
2018-04-17T08:39:28.758Z,1021.35
2018-04-17T08:40:28.719Z,1021.38
2018-04-17T08:41:28.771Z,1021.38
2018-04-17T08:42:28.756Z,1021.38
2018-04-17T08:43:28.799Z,1021.43
2018-04-17T08:44:28.764Z,1021.41
2018-04-17T08:45:28.790Z,1021.39
2018-04-17T08:46:28.807Z,1021.45
2018-04-17T08:47:28.844Z,1021.41
2018-04-17T08:48:28.809Z,1021.44
2018-04-17T08:49:28.819Z,1021.44
2018-04-17T08:50:28.830Z,1021.46
2018-04-17T08:51:28.840Z,1021.51
2018-04-17T08:52:28.896Z,1021.42
2018-04-17T08:53:28.870Z,1021.39
2018-04-17T08:54:28.940Z,1021.45
2018-04-17T08:55:28.896Z,1021.43
2018-04-17T08:56:28.911Z,1021.41
2018-04-17T08:57:28.967Z,1021.44
2018-04-17T08:58:28.972Z,1021.44
2018-04-17T08:59:28.959Z,1021.46
2018-04-17T09:00:28.955Z,1021.46
2018-04-17T09:01:28.960Z,1021.50
2018-04-17T09:02:29.012Z,1021.48
2018-04-17T09:03:28.978Z,1021.49
2018-04-17T09:04:29.014Z,1021.45
2018-04-17T09:05:29.023Z,1021.61
2018-04-17T09:06:29.027Z,1021.46
2018-04-17T09:07:29.067Z,1021.49
2018-04-17T09:08:29.086Z,1021.49
2018-04-17T09:09:29.055Z,1021.50
2018-04-17T09:10:29.168Z,1021.62
2018-04-17T09:11:29.080Z,1021.56
2018-04-17T09:12:29.106Z,1021.51
2018-04-17T09:13:29.106Z,1021.48
2018-04-17T09:14:29.119Z,1021.43
2018-04-17T09:15:29.257Z,1021.50
2018-04-17T09:16:29.139Z,1021.53
2018-04-17T09:17:29.154Z,1021.47
2018-04-17T09:18:29.167Z,1021.49
2018-04-17T09:19:29.188Z,1021.45
2018-04-17T09:20:29.187Z,1021.48
2018-04-17T09:21:29.261Z,1021.46
2018-04-17T09:22:29.199Z,1021.50
2018-04-17T09:23:29.230Z,1021.47
2018-04-17T09:24:29.247Z,1021.51
2018-04-17T09:25:29.241Z,1021.55
2018-04-17T09:26:29.296Z,1021.55
2018-04-17T09:27:29.319Z,1021.63
2018-04-17T09:28:29.294Z,1021.61
2018-04-17T09:29:29.294Z,1021.63
2018-04-17T09:30:29.319Z,1021.70
2018-04-17T09:31:29.339Z,1021.68
2018-04-17T09:32:29.330Z,1021.67
2018-04-17T09:33:29.494Z,1021.57
2018-04-17T09:34:29.372Z,1021.67
2018-04-17T09:35:29.354Z,1021.63
2018-04-17T09:36:29.382Z,1021.62
2018-04-17T09:37:29.410Z,1021.68
2018-04-17T09:38:29.435Z,1021.76
2018-04-17T09:39:29.416Z,1021.74
2018-04-17T09:40:29.425Z,1021.74
2018-04-17T09:41:29.449Z,1021.72
2018-04-17T09:42:29.467Z,1021.68
2018-04-17T09:43:29.474Z,1021.71
2018-04-17T09:44:29.470Z,1021.83
2018-04-17T09:45:29.476Z,1021.74
2018-04-17T09:46:29.494Z,1021.69
2018-04-17T09:47:29.508Z,1021.73
2018-04-17T09:48:29.550Z,1021.72
2018-04-17T09:49:29.579Z,1021.79
2018-04-17T09:50:29.604Z,1021.80
2018-04-17T09:51:29.547Z,1021.78
2018-04-17T09:52:29.551Z,1021.74
2018-04-17T09:53:29.590Z,1021.78
2018-04-17T09:54:29.593Z,1021.78
2018-04-17T09:55:29.634Z,1021.76
2018-04-17T09:56:29.619Z,1021.82
2018-04-17T09:57:29.628Z,1021.79
2018-04-17T09:58:29.620Z,1021.75
2018-04-17T09:59:29.646Z,1021.76
2018-04-17T10:00:29.705Z,1021.78
2018-04-17T10:01:29.719Z,1021.76
2018-04-17T10:02:29.680Z,1021.78
2018-04-17T10:03:29.704Z,1021.72
2018-04-17T10:04:29.737Z,1021.76
2018-04-17T10:05:29.765Z,1021.75
2018-04-17T10:06:29.784Z,1021.69
2018-04-17T10:07:29.745Z,1021.71
2018-04-17T10:08:29.760Z,1021.74
2018-04-17T10:09:29.758Z,1021.69
2018-04-17T10:10:29.786Z,1021.66
2018-04-17T10:11:29.805Z,1021.70
2018-04-17T10:12:29.959Z,1021.73
2018-04-17T10:13:29.907Z,1021.67
2018-04-17T10:14:29.825Z,1021.71
2018-04-17T10:15:29.843Z,1021.72
2018-04-17T10:16:29.849Z,1021.69
2018-04-17T10:17:29.851Z,1021.76
2018-04-17T10:18:29.905Z,1021.77
2018-04-17T10:19:29.903Z,1021.72
2018-04-17T10:20:29.924Z,1021.72
2018-04-17T10:21:29.900Z,1021.68
2018-04-17T10:22:29.936Z,1021.70
2018-04-17T10:23:29.921Z,1021.70
2018-04-17T10:24:29.941Z,1021.72
2018-04-17T10:25:30.012Z,1021.76
2018-04-17T10:26:29.980Z,1021.72
2018-04-17T10:27:29.980Z,1021.69
2018-04-17T10:28:29.996Z,1021.69
2018-04-17T10:29:30.006Z,1021.73
2018-04-17T10:30:30.044Z,1021.71
2018-04-17T10:31:30.030Z,1021.62
2018-04-17T10:32:30.076Z,1021.58
2018-04-17T10:33:30.040Z,1021.66
2018-04-17T10:34:30.053Z,1021.65
2018-04-17T10:35:30.066Z,1021.66
2018-04-17T10:36:30.113Z,1021.66
2018-04-17T10:37:30.129Z,1021.73
2018-04-17T10:38:30.152Z,1021.63
2018-04-17T10:39:30.119Z,1021.65
2018-04-17T10:40:30.138Z,1021.62
2018-04-17T10:41:30.164Z,1021.57
2018-04-17T10:42:30.168Z,1021.64
2018-04-17T10:43:30.213Z,1021.65
2018-04-17T10:44:30.191Z,1021.54
2018-04-17T10:45:30.213Z,1021.52
2018-04-17T10:46:30.237Z,1021.54
2018-04-17T10:47:30.218Z,1021.54
2018-04-17T10:48:30.303Z,1021.50
2018-04-17T10:49:30.237Z,1021.50
2018-04-17T10:50:30.249Z,1021.57
2018-04-17T10:51:30.264Z,1021.55
2018-04-17T10:52:30.320Z,1021.48
2018-04-17T10:53:30.327Z,1021.46
2018-04-17T10:54:30.311Z,1021.47
2018-04-17T10:55:30.318Z,1021.52
2018-04-17T10:56:30.336Z,1021.52
2018-04-17T10:57:30.356Z,1021.54
2018-04-17T10:58:30.355Z,1021.55
2018-04-17T10:59:30.373Z,1021.57
2018-04-17T11:00:30.462Z,1021.59
2018-04-17T11:01:30.437Z,1021.55
2018-04-17T11:02:30.403Z,1021.60
2018-04-17T11:03:30.429Z,1021.58
2018-04-17T11:04:30.447Z,1021.59
2018-04-17T11:05:30.428Z,1021.56
2018-04-17T11:06:30.490Z,1021.56
2018-04-17T11:07:30.498Z,1021.53
2018-04-17T11:08:30.471Z,1021.55
2018-04-17T11:09:30.515Z,1021.56
2018-04-17T11:10:30.494Z,1021.50
2018-04-17T11:11:30.560Z,1021.49
2018-04-17T11:12:30.535Z,1021.48
2018-04-17T11:13:30.566Z,1021.46
2018-04-17T11:14:30.555Z,1021.45
2018-04-17T11:15:30.573Z,1021.53
2018-04-17T11:16:30.615Z,1021.58
2018-04-17T11:17:30.586Z,1021.52
2018-04-17T11:18:30.622Z,1021.47
2018-04-17T11:19:30.645Z,1021.50
2018-04-17T11:20:30.618Z,1021.47
2018-04-17T11:21:30.666Z,1021.48
2018-04-17T11:22:30.649Z,1021.51
2018-04-17T11:23:30.655Z,1021.51
2018-04-17T11:24:30.665Z,1021.53
2018-04-17T11:25:30.673Z,1021.49
2018-04-17T11:26:30.732Z,1021.44
2018-04-17T11:27:30.710Z,1021.42
2018-04-17T11:28:30.727Z,1021.47
2018-04-17T11:29:30.740Z,1021.57
2018-04-17T11:30:30.741Z,1021.56
2018-04-17T11:31:30.788Z,1021.63
2018-04-17T11:32:30.808Z,1021.61
2018-04-17T11:33:30.789Z,1021.56
2018-04-17T11:34:30.852Z,1021.62
2018-04-17T11:35:30.816Z,1021.58
2018-04-17T11:36:30.855Z,1021.67
2018-04-17T11:37:30.842Z,1021.70
2018-04-17T11:38:30.849Z,1021.70
2018-04-17T11:39:30.853Z,1021.63
2018-04-17T11:40:30.887Z,1021.65
2018-04-17T11:41:30.920Z,1021.69
2018-04-17T11:42:30.998Z,1021.66
2018-04-17T11:43:30.901Z,1021.68
2018-04-17T11:44:30.926Z,1021.65
2018-04-17T11:45:30.933Z,1021.67
2018-04-17T11:46:30.964Z,1021.64
2018-04-17T11:47:30.963Z,1021.66
2018-04-17T11:48:30.987Z,1021.71
2018-04-17T11:49:31.015Z,1021.77
2018-04-17T11:50:31.054Z,1021.81
2018-04-17T11:51:31.020Z,1021.74
2018-04-17T11:52:31.018Z,1021.77
2018-04-17T11:53:31.056Z,1021.78
2018-04-17T11:54:31.074Z,1021.78
2018-04-17T11:55:31.083Z,1021.74
2018-04-17T11:56:31.102Z,1021.75
2018-04-17T11:57:31.137Z,1021.75
2018-04-17T11:58:31.093Z,1021.80
2018-04-17T11:59:31.109Z,1021.77
2018-04-17T12:00:31.120Z,1021.83
2018-04-17T12:01:31.167Z,1021.84
2018-04-17T12:02:31.177Z,1021.87
2018-04-17T12:03:31.161Z,1021.87
2018-04-17T12:04:31.180Z,1021.89
2018-04-17T12:05:31.188Z,1021.86